createdAt,value
2023-04-17T00:01:04.002Z,6.40
2023-04-17T00:03:33.094Z,6.41
2023-04-17T00:06:01.457Z,6.43
2023-04-17T00:08:29.521Z,6.50
2023-04-17T00:11:06.998Z,6.45
2023-04-17T00:13:38.692Z,6.48
2023-04-17T00:16:07.708Z,6.50
2023-04-17T00:18:36.314Z,6.46
2023-04-17T00:21:05.060Z,6.43
2023-04-17T00:23:33.678Z,6.49
2023-04-17T00:26:02.016Z,6.46
2023-04-17T00:28:30.101Z,6.38
2023-04-17T00:31:00.033Z,6.35
2023-04-17T00:33:28.177Z,6.40
2023-04-17T00:35:56.540Z,6.46
2023-04-17T00:38:25.013Z,6.47
2023-04-17T00:40:53.715Z,6.41
2023-04-17T00:43:22.038Z,6.41
2023-04-17T00:45:51.223Z,6.42
2023-04-17T00:48:24.063Z,6.42
2023-04-17T00:50:53.322Z,6.45
2023-04-17T00:53:21.464Z,6.36
2023-04-17T00:55:52.653Z,6.33
2023-04-17T00:58:21.207Z,6.26
2023-04-17T01:00:51.133Z,6.26
2023-04-17T01:03:22.022Z,6.23
2023-04-17T01:05:52.413Z,6.19
2023-04-17T01:08:21.192Z,6.23
2023-04-17T01:10:49.668Z,6.27
2023-04-17T01:13:18.018Z,6.31
2023-04-17T01:15:47.107Z,6.22
2023-04-17T01:18:15.376Z,6.18
2023-04-17T01:20:44.756Z,6.17
2023-04-17T01:23:13.268Z,6.15
2023-04-17T01:25:42.859Z,6.19
2023-04-17T01:28:11.170Z,6.14
2023-04-17T01:30:39.502Z,6.12
2023-04-17T01:33:09.722Z,6.11
2023-04-17T01:35:38.053Z,6.13
2023-04-17T01:38:06.167Z,6.08
2023-04-17T01:40:34.552Z,6.11
2023-04-17T01:43:04.229Z,6.16
2023-04-17T01:45:32.524Z,6.08
2023-04-17T01:48:01.499Z,6.07
2023-04-17T01:50:30.269Z,6.11
2023-04-17T01:52:58.518Z,6.02
2023-04-17T01:55:27.145Z,6.00
2023-04-17T01:57:55.761Z,6.00
2023-04-17T02:00:26.390Z,5.98
2023-04-17T02:02:55.049Z,5.93
2023-04-17T02:05:25.040Z,5.94
2023-04-17T02:07:53.292Z,5.94
2023-04-17T02:10:21.934Z,5.97
2023-04-17T02:12:50.460Z,5.99
2023-04-17T02:15:18.669Z,5.99
2023-04-17T02:17:48.552Z,5.96
2023-04-17T02:20:17.044Z,5.99
2023-04-17T02:22:45.468Z,6.00
2023-04-17T02:25:13.664Z,6.02
2023-04-17T02:27:41.839Z,5.98
2023-04-17T02:30:10.551Z,5.98
2023-04-17T02:32:38.959Z,6.03
2023-04-17T02:35:10.937Z,6.04
2023-04-17T02:37:39.257Z,6.02
2023-04-17T02:40:11.894Z,6.05
2023-04-17T02:42:40.181Z,6.06
2023-04-17T02:45:10.047Z,6.06
2023-04-17T02:47:38.570Z,6.03
2023-04-17T02:50:10.258Z,5.99
2023-04-17T02:52:47.356Z,6.02
2023-04-17T02:55:16.046Z,6.02
2023-04-17T02:57:44.580Z,5.98
2023-04-17T03:00:14.975Z,6.03
2023-04-17T03:02:43.529Z,6.00
2023-04-17T03:05:15.026Z,6.05
2023-04-17T03:07:43.446Z,6.03
2023-04-17T03:10:12.104Z,6.00
2023-04-17T03:12:40.679Z,6.01
2023-04-17T03:15:09.922Z,6.00
2023-04-17T03:17:38.287Z,6.07
2023-04-17T03:20:08.340Z,6.11
2023-04-17T03:22:38.028Z,6.16
2023-04-17T03:25:08.308Z,6.10
2023-04-17T03:27:44.750Z,6.10
2023-04-17T03:30:14.493Z,6.11
2023-04-17T03:32:46.830Z,6.14
2023-04-17T03:35:15.277Z,6.13
2023-04-17T03:37:45.541Z,6.13
2023-04-17T03:40:14.934Z,6.14
2023-04-17T03:42:45.355Z,6.09
2023-04-17T03:45:13.531Z,6.05
2023-04-17T03:47:42.151Z,6.03
2023-04-17T03:50:11.200Z,5.98
2023-04-17T03:52:46.826Z,5.99
2023-04-17T03:55:16.139Z,6.01
2023-04-17T03:57:46.173Z,5.95
2023-04-17T04:00:19.255Z,5.97
2023-04-17T04:02:50.485Z,6.00
2023-04-17T04:05:24.411Z,6.01
2023-04-17T04:07:55.154Z,6.03
2023-04-17T04:10:30.799Z,6.08
2023-04-17T04:12:59.302Z,6.12
2023-04-17T04:15:27.745Z,6.22
2023-04-17T04:18:00.494Z,6.20
2023-04-17T04:20:29.026Z,6.13
2023-04-17T04:23:10.993Z,6.13
2023-04-17T04:25:41.866Z,6.15
2023-04-17T04:28:30.568Z,6.05
2023-04-17T04:31:00.062Z,6.11
2023-04-17T04:33:33.161Z,6.02
2023-04-17T04:36:02.082Z,6.09
2023-04-17T04:38:33.326Z,6.13
2023-04-17T04:41:11.765Z,6.21
2023-04-17T04:43:43.291Z,6.32
2023-04-17T04:46:12.770Z,6.41
2023-04-17T04:48:46.446Z,6.41
2023-04-17T04:51:15.253Z,6.44
2023-04-17T04:53:45.970Z,6.42
2023-04-17T04:56:16.162Z,6.36
2023-04-17T04:58:46.418Z,6.50
2023-04-17T05:01:15.183Z,6.60
2023-04-17T05:03:47.572Z,6.54
2023-04-17T05:06:22.430Z,6.53
2023-04-17T05:08:58.299Z,6.50
2023-04-17T05:11:27.203Z,6.40
2023-04-17T05:13:55.631Z,6.42
2023-04-17T05:16:27.611Z,6.33
2023-04-17T05:18:56.599Z,6.50
2023-04-17T05:21:39.975Z,6.59
2023-04-17T05:24:41.097Z,6.70
2023-04-17T05:27:09.904Z,6.79
2023-04-17T05:29:39.039Z,6.74
2023-04-17T05:32:07.733Z,6.61
2023-04-17T05:34:54.448Z,6.61
2023-04-17T05:37:26.744Z,6.79
2023-04-17T05:40:00.221Z,6.76
2023-04-17T05:42:29.723Z,6.76
2023-04-17T05:44:57.902Z,6.78
2023-04-17T05:47:26.414Z,6.80
2023-04-17T05:49:58.119Z,6.78
2023-04-17T05:52:29.248Z,6.70
2023-04-17T05:54:59.384Z,6.81
2023-04-17T05:57:29.778Z,6.76
2023-04-17T05:59:59.152Z,6.69
2023-04-17T06:02:30.027Z,6.75
2023-04-17T06:05:28.396Z,6.83
2023-04-17T06:07:56.866Z,6.85
2023-04-17T06:10:27.405Z,6.96
2023-04-17T06:12:55.694Z,6.91
2023-04-17T06:15:24.309Z,6.92
2023-04-17T06:17:52.808Z,6.91
2023-04-17T06:20:21.274Z,6.85
2023-04-17T06:22:49.750Z,6.94
2023-04-17T06:25:18.450Z,6.89
2023-04-17T06:27:49.065Z,6.80
2023-04-17T06:30:17.713Z,6.77
2023-04-17T06:32:52.178Z,6.73
2023-04-17T06:35:22.116Z,6.67
2023-04-17T06:38:10.601Z,6.67
2023-04-17T06:40:39.162Z,6.62
2023-04-17T06:43:10.196Z,6.67
2023-04-17T06:45:42.488Z,6.67
2023-04-17T06:48:10.905Z,6.69
2023-04-17T06:50:40.369Z,6.70
2023-04-17T06:53:08.580Z,6.79
2023-04-17T06:55:36.833Z,6.65
2023-04-17T06:58:05.459Z,6.57
2023-04-17T07:00:35.434Z,6.72
2023-04-17T07:03:03.741Z,6.72
2023-04-17T07:05:32.025Z,6.82
2023-04-17T07:08:00.375Z,6.76
2023-04-17T07:10:29.299Z,6.76
2023-04-17T07:12:57.479Z,6.70
2023-04-17T07:15:26.820Z,6.67
2023-04-17T07:17:56.611Z,6.75
2023-04-17T07:20:25.285Z,6.67
2023-04-17T07:22:55.676Z,6.63
2023-04-17T07:25:24.196Z,6.84
2023-04-17T07:27:58.925Z,7.05
2023-04-17T07:30:27.718Z,7.33
2023-04-17T07:32:58.518Z,7.72
2023-04-17T07:35:28.417Z,8.03
2023-04-17T07:37:59.368Z,7.76
2023-04-17T07:40:28.637Z,7.66
2023-04-17T07:42:57.807Z,7.60
2023-04-17T07:45:29.980Z,7.74
2023-04-17T07:47:59.836Z,7.84
2023-04-17T07:50:31.066Z,7.92
2023-04-17T07:52:59.839Z,7.84
2023-04-17T07:55:28.860Z,8.23
2023-04-17T07:57:58.569Z,8.04
2023-04-17T08:00:26.954Z,8.06
2023-04-17T08:02:55.500Z,7.92
2023-04-17T08:05:26.328Z,7.47
2023-04-17T08:07:55.462Z,7.27
2023-04-17T08:10:24.654Z,7.26
2023-04-17T08:12:52.993Z,7.51
2023-04-17T08:15:21.761Z,7.62
2023-04-17T08:17:50.687Z,8.10
2023-04-17T08:20:20.023Z,8.93
2023-04-17T08:22:50.544Z,11.21
2023-04-17T08:25:20.134Z,12.47
2023-04-17T08:27:48.506Z,14.75
2023-04-17T08:30:19.264Z,16.83
2023-04-17T08:32:50.316Z,19.03
2023-04-17T08:35:18.731Z,15.57
2023-04-17T08:38:01.936Z,13.86
2023-04-17T08:40:31.072Z,11.52
2023-04-17T08:43:03.473Z,9.85
2023-04-17T08:45:33.909Z,9.81
2023-04-17T08:48:02.645Z,9.77
2023-04-17T08:50:31.822Z,9.68
2023-04-17T08:53:01.789Z,9.92
2023-04-17T08:55:47.701Z,9.59
2023-04-17T08:58:18.004Z,8.91
2023-04-17T09:00:47.735Z,8.42
2023-04-17T09:03:17.719Z,7.80
2023-04-17T09:05:46.653Z,7.41
2023-04-17T09:08:18.110Z,7.21
2023-04-17T09:10:47.820Z,7.28
2023-04-17T09:13:18.664Z,7.40
2023-04-17T09:15:48.966Z,7.42
2023-04-17T09:18:28.210Z,7.42
2023-04-17T09:20:57.908Z,7.41
2023-04-17T09:23:29.869Z,7.60
2023-04-17T09:26:09.570Z,8.15
2023-04-17T09:28:40.036Z,8.38
2023-04-17T09:31:26.351Z,8.75
2023-04-17T09:33:59.243Z,9.01
2023-04-17T09:36:28.915Z,9.28
2023-04-17T09:39:00.579Z,9.10
2023-04-17T09:41:30.121Z,8.86
2023-04-17T09:44:05.737Z,8.62
2023-04-17T09:46:38.551Z,8.39
2023-04-17T09:49:12.194Z,8.08
2023-04-17T09:51:41.345Z,8.02
2023-04-17T09:54:12.832Z,8.07
2023-04-17T09:56:42.781Z,7.71
2023-04-17T09:59:11.356Z,7.78
2023-04-17T10:01:42.661Z,7.42
2023-04-17T10:04:13.885Z,7.30
2023-04-17T10:06:42.682Z,7.14
2023-04-17T10:09:14.327Z,7.14
2023-04-17T10:11:47.507Z,7.49
2023-04-17T10:14:22.000Z,7.13
2023-04-17T10:16:54.804Z,6.81
2023-04-17T10:19:31.522Z,6.98
2023-04-17T10:22:32.640Z,7.00
2023-04-17T10:25:22.701Z,6.99
2023-04-17T10:27:56.294Z,6.96
2023-04-17T10:30:26.997Z,7.16
2023-04-17T10:33:24.915Z,7.12
2023-04-17T10:35:55.171Z,6.73
2023-04-17T10:38:34.955Z,6.88
2023-04-17T10:41:09.760Z,7.30
2023-04-17T10:43:42.966Z,7.08
2023-04-17T10:46:14.205Z,6.94
2023-04-17T10:48:49.838Z,6.87
2023-04-17T10:51:41.161Z,6.72
2023-04-17T10:54:14.327Z,6.66
2023-04-17T10:56:48.856Z,6.65
2023-04-17T10:59:18.983Z,6.60
2023-04-17T11:02:05.030Z,6.79
2023-04-17T11:04:35.185Z,6.80
2023-04-17T11:07:04.486Z,6.68
2023-04-17T11:09:33.248Z,6.70
2023-04-17T11:12:03.496Z,6.68
2023-04-17T11:14:32.532Z,6.58
2023-04-17T11:17:03.376Z,6.48
2023-04-17T11:19:33.953Z,6.53
2023-04-17T11:22:03.424Z,6.48
2023-04-17T11:24:33.358Z,6.62
2023-04-17T11:27:05.888Z,6.20
2023-04-17T11:29:34.716Z,6.03
2023-04-17T11:32:04.123Z,6.11
2023-04-17T11:34:32.450Z,6.20
2023-04-17T11:37:03.300Z,6.11
2023-04-17T11:39:33.375Z,6.18
2023-04-17T11:42:05.598Z,6.17
2023-04-17T11:44:34.181Z,6.48
2023-04-17T11:47:04.333Z,6.57
2023-04-17T11:49:34.160Z,6.53
2023-04-17T11:52:05.346Z,6.58
2023-04-17T11:54:38.598Z,6.80
2023-04-17T11:57:13.339Z,6.96
2023-04-17T11:59:45.609Z,7.18
2023-04-17T12:02:15.392Z,6.75
2023-04-17T12:04:44.705Z,6.64
2023-04-17T12:07:24.883Z,6.70
2023-04-17T12:09:58.036Z,6.64
2023-04-17T12:12:29.807Z,6.38
2023-04-17T12:14:59.290Z,6.40
2023-04-17T12:17:27.575Z,6.43
2023-04-17T12:19:56.288Z,6.56
2023-04-17T12:22:25.949Z,6.56
2023-04-17T12:24:54.583Z,6.35
2023-04-17T12:27:22.997Z,6.41
2023-04-17T12:29:53.106Z,6.48
2023-04-17T12:32:22.153Z,6.40
2023-04-17T12:34:50.652Z,6.41
2023-04-17T12:37:20.075Z,6.46
2023-04-17T12:39:48.919Z,6.47
2023-04-17T12:42:18.347Z,6.70
2023-04-17T12:44:47.053Z,6.62
2023-04-17T12:47:16.930Z,6.89
2023-04-17T12:49:46.500Z,6.69
2023-04-17T12:52:14.890Z,6.21
2023-04-17T12:54:43.343Z,6.11
2023-04-17T12:57:12.085Z,6.17
2023-04-17T12:59:41.093Z,6.33
2023-04-17T13:02:10.527Z,6.23
2023-04-17T13:04:40.973Z,6.25
2023-04-17T13:07:11.123Z,6.17
2023-04-17T13:09:39.814Z,6.21
2023-04-17T13:12:09.377Z,5.95
2023-04-17T13:14:38.683Z,6.25
2023-04-17T13:17:07.622Z,6.16
2023-04-17T13:19:36.902Z,6.19
2023-04-17T13:22:07.051Z,6.10
2023-04-17T13:24:37.292Z,6.07
2023-04-17T13:27:06.088Z,6.09
2023-04-17T13:29:34.642Z,5.95
2023-04-17T13:32:04.406Z,5.84
2023-04-17T13:34:32.850Z,5.87
2023-04-17T13:37:02.321Z,6.00
2023-04-17T13:39:32.861Z,5.63
2023-04-17T13:42:01.608Z,5.65
2023-04-17T13:44:29.919Z,5.87
2023-04-17T13:46:58.184Z,5.72
2023-04-17T13:49:27.367Z,5.84
2023-04-17T13:51:56.450Z,5.84
2023-04-17T13:54:24.994Z,5.82
2023-04-17T13:56:57.591Z,5.78
2023-04-17T13:59:27.235Z,5.79
2023-04-17T14:01:56.224Z,5.72
2023-04-17T14:04:26.173Z,5.73
2023-04-17T14:06:54.618Z,5.64
2023-04-17T14:09:23.592Z,5.38
2023-04-17T14:11:51.976Z,5.38
2023-04-17T14:14:22.699Z,5.41
2023-04-17T14:16:52.106Z,5.35
2023-04-17T14:19:21.351Z,5.31
2023-04-17T14:21:49.774Z,5.27
2023-04-17T14:24:18.536Z,5.09
2023-04-17T14:26:47.182Z,5.19
2023-04-17T14:29:16.314Z,5.19
2023-04-17T14:31:46.233Z,5.29
2023-04-17T14:34:15.012Z,5.20
2023-04-17T14:36:56.253Z,5.17
2023-04-17T14:39:28.000Z,5.19
2023-04-17T14:42:01.341Z,5.14
2023-04-17T14:44:32.106Z,5.10
2023-04-17T14:47:03.019Z,5.15
2023-04-17T14:49:32.117Z,5.14
2023-04-17T14:52:01.919Z,5.05
2023-04-17T14:54:30.314Z,4.83
2023-04-17T14:56:58.968Z,4.88
2023-04-17T14:59:27.936Z,4.90
2023-04-17T15:01:57.120Z,4.80
2023-04-17T15:04:27.024Z,4.86
2023-04-17T15:06:56.404Z,4.87
2023-04-17T15:09:24.802Z,4.94
2023-04-17T15:11:53.676Z,5.13
2023-04-17T15:14:22.899Z,5.08
2023-04-17T15:16:51.360Z,5.14
2023-04-17T15:19:19.907Z,5.28
2023-04-17T15:22:38.641Z,5.13
2023-04-17T15:25:10.069Z,5.04
2023-04-17T15:27:38.151Z,4.91
2023-04-17T15:30:09.273Z,4.87
2023-04-17T15:32:37.859Z,4.92
2023-04-17T15:35:07.055Z,4.79
2023-04-17T15:37:35.759Z,4.91
2023-04-17T15:40:04.217Z,4.87
2023-04-17T15:42:34.074Z,5.04
2023-04-17T15:45:02.877Z,5.02
2023-04-17T15:47:32.172Z,4.94
2023-04-17T15:50:00.969Z,4.93
2023-04-17T15:52:29.129Z,4.97
2023-04-17T15:54:57.185Z,4.80
2023-04-17T15:57:25.456Z,4.77
2023-04-17T15:59:55.286Z,4.87
2023-04-17T16:02:24.108Z,4.83
2023-04-17T16:04:53.427Z,4.69
2023-04-17T16:07:23.183Z,4.72
2023-04-17T16:09:51.750Z,4.74
2023-04-17T16:12:20.012Z,4.75
2023-04-17T16:14:49.415Z,4.83
2023-04-17T16:17:20.181Z,4.80
2023-04-17T16:19:50.478Z,4.79
2023-04-17T16:22:19.242Z,4.84
2023-04-17T16:24:47.316Z,4.86
2023-04-17T16:27:16.168Z,4.82
2023-04-17T16:29:44.305Z,4.72
2023-04-17T16:32:14.398Z,4.72
2023-04-17T16:34:43.800Z,4.67
2023-04-17T16:37:11.956Z,4.75
2023-04-17T16:39:40.476Z,4.70
2023-04-17T16:42:08.819Z,4.65
2023-04-17T16:44:37.955Z,4.69
2023-04-17T16:47:13.473Z,4.54
2023-04-17T16:49:44.213Z,4.49
2023-04-17T16:52:12.332Z,4.45
2023-04-17T16:54:40.865Z,4.57
2023-04-17T16:57:10.424Z,4.48
2023-04-17T16:59:38.869Z,4.46
2023-04-17T17:05:40.949Z,4.50
2023-04-17T17:08:09.480Z,4.45
2023-04-17T17:10:37.731Z,4.46
2023-04-17T17:13:06.291Z,4.43
2023-04-17T17:15:34.881Z,4.41
2023-04-17T17:18:03.546Z,4.38
2023-04-17T17:20:32.192Z,4.43
2023-04-17T17:23:03.217Z,4.41
2023-04-17T17:25:31.910Z,4.43
2023-04-17T17:28:00.492Z,4.47
2023-04-17T17:30:30.027Z,4.41
2023-04-17T17:32:58.836Z,4.46
2023-04-17T17:35:27.321Z,4.43
2023-04-17T17:37:56.024Z,4.42
2023-04-17T17:40:26.012Z,4.38
2023-04-17T17:42:54.648Z,4.26
2023-04-17T17:45:22.881Z,4.26
2023-04-17T17:47:51.053Z,4.22
2023-04-17T17:50:20.000Z,4.32
2023-04-17T17:52:48.209Z,4.27
2023-04-17T17:55:16.869Z,4.24
2023-04-17T17:57:49.173Z,4.26
2023-04-17T18:00:26.812Z,4.29
2023-04-17T18:02:55.992Z,4.31
2023-04-17T18:05:24.988Z,4.27
2023-04-17T18:08:21.678Z,4.30
2023-04-17T18:10:50.189Z,4.23
2023-04-17T18:13:19.829Z,4.31
2023-04-17T18:15:48.329Z,4.28
2023-04-17T18:18:16.580Z,4.22
2023-04-17T18:20:44.788Z,4.27
2023-04-17T18:23:13.133Z,4.26
2023-04-17T18:25:41.768Z,4.32
2023-04-17T18:28:10.021Z,4.31
2023-04-17T18:30:39.570Z,4.28
2023-04-17T18:33:07.761Z,4.24
2023-04-17T18:35:35.964Z,4.22
2023-04-17T18:38:04.901Z,4.34
2023-04-17T18:40:32.933Z,4.25
2023-04-17T18:43:01.702Z,4.28
2023-04-17T18:45:31.102Z,4.30
2023-04-17T18:48:01.077Z,4.28
2023-04-17T18:50:29.685Z,4.28
2023-04-17T18:52:58.081Z,4.26
2023-04-17T18:55:26.531Z,4.20
2023-04-17T18:57:54.685Z,4.18
2023-04-17T19:00:23.169Z,4.19
2023-04-17T19:02:51.662Z,4.20
2023-04-17T19:05:46.969Z,4.22
2023-04-17T19:08:16.672Z,4.20
2023-04-17T19:10:45.616Z,4.21
2023-04-17T19:13:14.473Z,4.19
2023-04-17T19:15:42.616Z,4.18
2023-04-17T19:18:11.421Z,4.19
2023-04-17T19:20:40.133Z,4.14
2023-04-17T19:23:10.307Z,4.15
2023-04-17T19:25:39.114Z,4.15
2023-04-17T19:28:07.628Z,4.20
2023-04-17T19:30:35.681Z,4.24
2023-04-17T19:33:04.102Z,4.25
2023-04-17T19:35:32.924Z,4.22
2023-04-17T19:38:01.914Z,4.35
2023-04-17T19:40:31.927Z,4.35
2023-04-17T19:43:01.735Z,4.30
2023-04-17T19:45:33.714Z,4.29
2023-04-17T19:48:02.502Z,4.27
2023-04-17T19:50:31.552Z,4.29
2023-04-17T19:53:00.807Z,4.21
2023-04-17T19:55:28.970Z,4.25
2023-04-17T19:57:59.215Z,4.30
2023-04-17T20:00:27.606Z,4.34
2023-04-17T20:02:56.339Z,4.36
2023-04-17T20:05:24.513Z,4.41
2023-04-17T20:07:52.992Z,4.36
2023-04-17T20:10:21.370Z,4.32
2023-04-17T20:12:50.213Z,4.33
2023-04-17T20:15:22.067Z,4.36
2023-04-17T20:17:51.219Z,4.34
2023-04-17T20:20:20.229Z,4.38
2023-04-17T20:22:48.711Z,4.35
2023-04-17T20:25:19.007Z,4.43
2023-04-17T20:27:47.335Z,4.47
2023-04-17T20:30:16.162Z,4.41
2023-04-17T20:32:46.329Z,4.44
2023-04-17T20:35:15.188Z,4.52
2023-04-17T20:37:45.927Z,4.45
2023-04-17T20:40:15.023Z,4.45
2023-04-17T20:42:44.873Z,4.45
2023-04-17T20:45:12.876Z,4.56
2023-04-17T20:47:55.392Z,4.57
2023-04-17T20:50:27.051Z,4.53
2023-04-17T20:52:55.616Z,4.52
2023-04-17T20:55:24.492Z,4.49
2023-04-17T20:57:52.558Z,4.46
2023-04-17T21:25:29.749Z,4.50
2023-04-17T21:28:09.379Z,4.57
2023-04-17T21:30:38.029Z,4.53
2023-04-17T21:33:06.278Z,4.54
2023-04-17T21:35:36.582Z,4.56
2023-04-17T21:38:04.637Z,4.56
2023-04-17T21:40:36.701Z,4.63
2023-04-17T21:43:05.392Z,4.55
2023-04-17T21:45:35.418Z,4.47
2023-04-17T21:48:04.940Z,4.46
2023-04-17T21:50:33.059Z,4.49
2023-04-17T21:53:01.336Z,4.55
2023-04-17T21:55:29.707Z,4.54
2023-04-17T21:57:57.926Z,4.53
2023-04-17T22:00:26.424Z,4.54
2023-04-17T22:02:56.483Z,4.55
2023-04-17T22:05:24.968Z,4.55
2023-04-17T22:07:55.271Z,4.55
2023-04-17T22:10:25.171Z,4.53
2023-04-17T22:12:53.765Z,4.57
2023-04-17T22:15:22.417Z,4.58
2023-04-17T22:17:50.747Z,4.61
2023-04-17T22:20:20.757Z,4.65
2023-04-17T22:22:48.804Z,4.68
2023-04-17T22:25:17.184Z,4.68
2023-04-17T22:27:46.228Z,4.74
2023-04-17T22:30:14.657Z,4.73
2023-04-17T22:32:43.570Z,4.79
2023-04-17T22:35:11.669Z,4.82
2023-04-17T22:37:41.513Z,4.85
2023-04-17T22:40:10.676Z,4.85
2023-04-17T22:42:39.136Z,4.89
2023-04-17T22:45:08.643Z,4.91
2023-04-17T22:47:36.955Z,4.94
2023-04-17T22:50:05.870Z,4.97
2023-04-17T22:52:34.546Z,5.02
2023-04-17T22:55:05.087Z,5.02
2023-04-17T22:57:33.565Z,5.03
2023-04-17T23:00:01.820Z,5.05
2023-04-17T23:02:30.436Z,5.05
2023-04-17T23:04:58.662Z,5.08
2023-04-17T23:07:27.042Z,5.05
2023-04-17T23:09:55.640Z,5.02
2023-04-17T23:12:25.425Z,5.03
2023-04-17T23:14:53.521Z,5.04
2023-04-17T23:17:21.614Z,5.01
2023-04-17T23:19:49.971Z,5.03
2023-04-17T23:22:18.342Z,5.00
2023-04-17T23:24:46.445Z,4.98
2023-04-17T23:27:14.662Z,4.98
2023-04-17T23:29:44.661Z,4.94
2023-04-17T23:32:12.867Z,4.94
2023-04-17T23:34:41.194Z,4.95
2023-04-17T23:37:09.273Z,4.95
2023-04-17T23:39:37.235Z,4.92
2023-04-17T23:42:08.093Z,4.92
2023-04-17T23:44:36.516Z,4.89
2023-04-17T23:47:06.425Z,4.87
2023-04-17T23:49:34.859Z,4.84
2023-04-17T23:52:03.790Z,4.83
2023-04-17T23:54:32.070Z,4.82
2023-04-17T23:57:00.229Z,4.83
2023-04-17T23:59:28.689Z,4.82
